Time;durP1;ratioP1;P1;durP2;ratioP2;P2;SDS_P1;SDS_P2;PMS_P1;PMS_P2;Temp;Humidity;BMP_temperature;BMP_pressure;BME280_temperature;BME280_humidity;BME280_pressure;Samples;Min_cycle;Max_cycle;Signal;HPM_P1;HPM_P2
2022/11/29 00:01:42;;;;;;;0.08;0.08;;;15.90;90.10;;;;;;4209688;28;20050;-58
2022/11/29 00:04:23;;;;;;;0.08;0.08;;;15.80;90.00;;;;;;4193928;28;20106;-59
2022/11/29 00:07:03;;;;;;;0.00;0.00;;;15.80;90.00;;;;;;4187684;28;20055;-58
2022/11/29 00:09:44;;;;;;;0.28;0.28;;;15.80;90.10;;;;;;4209026;28;20097;-59
2022/11/29 00:12:26;;;;;;;0.27;0.27;;;15.80;90.10;;;;;;4205822;28;20063;-59
2022/11/29 00:15:08;;;;;;;0.63;0.63;;;15.80;90.10;;;;;;4193261;28;20078;-59
2022/11/29 00:17:49;;;;;;;0.00;0.00;;;15.80;90.10;;;;;;4192978;28;20117;-58
2022/11/29 00:20:30;;;;;;;1.08;1.08;;;15.80;90.10;;;;;;4209839;28;20070;-59
2022/11/29 00:23:11;;;;;;;2.33;1.92;;;15.80;90.20;;;;;;4210252;28;20051;-58
2022/11/29 00:25:52;;;;;;;0.47;0.47;;;15.80;90.20;;;;;;4209061;28;20059;-58
2022/11/29 00:28:35;;;;;;;0.00;0.00;;;15.80;90.20;;;;;;4210267;28;20144;-58
2022/11/29 00:31:18;;;;;;;0.00;0.00;;;15.80;90.20;;;;;;4210025;28;20140;-58
2022/11/29 00:34:01;;;;;;;0.43;0.43;;;15.70;90.20;;;;;;4203581;28;20059;-59
2022/11/29 00:36:42;;;;;;;0.32;0.32;;;15.70;90.20;;;;;;4193241;28;20179;-57
2022/11/29 00:39:23;;;;;;;0.28;0.28;;;15.70;90.20;;;;;;4193157;28;20058;-57
2022/11/29 00:42:05;;;;;;;0.00;0.00;;;15.70;90.20;;;;;;4195789;28;20856;-58
2022/11/29 00:44:47;;;;;;;;;;;15.70;90.20;;;;;;4193795;28;20465;-58
2022/11/29 00:47:27;;;;;;;3.40;1.08;;;15.70;90.20;;;;;;4204364;28;19933;-58
2022/11/29 00:50:09;;;;;;;7.38;1.85;;;15.70;90.20;;;;;;4209972;28;20437;-58
2022/11/29 00:52:50;;;;;;;0.10;0.10;;;15.70;90.30;;;;;;4208359;28;20071;-58
2022/11/29 00:55:30;;;;;;;0.03;0.03;;;15.70;90.30;;;;;;4209700;28;20205;-60
2022/11/29 00:58:11;;;;;;;0.05;0.05;;;15.70;90.30;;;;;;4209608;28;20059;-59
2022/11/29 01:00:55;;;;;;;0.88;0.88;;;15.70;90.30;;;;;;4197679;28;20190;-59
2022/11/29 01:03:36;;;;;;;1.38;1.35;;;15.70;90.30;;;;;;4189581;28;20138;-59
2022/11/29 01:06:19;;;;;;;0.85;0.85;;;15.70;90.40;;;;;;4192489;28;20055;-60
2022/11/29 01:09:00;;;;;;;0.00;0.00;;;15.70;90.70;;;;;;4191891;28;20047;-60
2022/11/29 01:11:40;;;;;;;2.70;0.57;;;15.60;90.30;;;;;;4196482;28;20474;-60
2022/11/29 01:14:22;;;;;;;0.00;0.00;;;15.60;90.30;;;;;;4176167;28;20122;-59
2022/11/29 01:17:04;;;;;;;0.00;0.00;;;15.60;90.80;;;;;;4175619;28;20186;-59
2022/11/29 01:19:45;;;;;;;0.75;0.75;;;15.70;90.80;;;;;;4191101;28;20070;-60
2022/11/29 01:22:30;;;;;;;0.00;0.00;;;15.60;90.40;;;;;;4208416;28;20055;-60
2022/11/29 01:25:12;;;;;;;0.52;0.52;;;15.60;90.40;;;;;;4175909;28;20554;-60
2022/11/29 01:27:54;;;;;;;0.22;0.22;;;15.60;90.50;;;;;;4175401;28;20055;-59
2022/11/29 01:30:37;;;;;;;0.00;0.00;;;15.60;90.50;;;;;;4175319;28;20488;-59
2022/11/29 01:33:19;;;;;;;0.00;0.00;;;15.60;90.50;;;;;;4186591;28;20507;-59
2022/11/29 01:36:00;;;;;;;0.00;0.00;;;15.60;90.50;;;;;;4192169;28;20056;-59
2022/11/29 01:38:42;;;;;;;0.10;0.10;;;15.60;90.50;;;;;;4191983;28;20486;-59
2022/11/29 01:41:25;;;;;;;0.00;0.00;;;15.60;90.60;;;;;;4192071;28;20055;-59
2022/11/29 01:44:28;;;;;;;2.05;0.88;;;15.60;90.50;;;;;;4201180;28;20442;-59
2022/11/29 01:47:11;;;;;;;0.00;0.00;;;15.60;90.50;;;;;;4175375;28;20068;-59
2022/11/29 01:49:53;;;;;;;0.00;0.00;;;15.50;90.60;;;;;;4175541;28;20047;-59
2022/11/29 01:52:34;;;;;;;0.00;0.00;;;15.60;90.70;;;;;;4174926;28;20199;-59
2022/11/29 01:55:15;;;;;;;0.30;0.30;;;15.60;90.60;;;;;;4180325;28;20048;-59
2022/11/29 01:57:56;;;;;;;0.52;0.52;;;15.70;90.50;;;;;;4208330;28;20074;-60
2022/11/29 02:00:37;;;;;;;0.25;0.25;;;15.70;90.40;;;;;;4190917;28;20051;-59
2022/11/29 02:03:18;;;;;;;0.55;0.55;;;15.70;90.30;;;;;;4190572;28;20046;-59
2022/11/29 02:06:01;;;;;;;0.00;0.00;;;15.80;90.20;;;;;;4191852;28;20047;-59
2022/11/29 02:08:43;;;;;;;3.30;1.25;;;15.80;90.10;;;;;;4191457;28;20076;-60
2022/11/29 02:11:41;;;;;;;0.65;0.65;;;15.80;90.10;;;;;;4191750;28;20067;-59
2022/11/29 02:14:51;;;;;;;0.32;0.32;;;15.80;90.00;;;;;;4196902;28;20162;-59
2022/11/29 02:17:40;;;;;;;0.30;0.30;;;15.90;90.10;;;;;;4208346;28;20051;-59
2022/11/29 02:21:00;;;;;;;5.53;0.47;;;15.90;90.10;;;;;;4207331;28;20055;-59
2022/11/29 02:24:18;;;;;;;0.00;0.00;;;15.80;90.00;;;;;;4194769;27;20056;-58
2022/11/29 02:27:46;;;;;;;0.00;0.00;;;15.80;90.10;;;;;;4175152;28;20044;-58
2022/11/29 02:30:42;;;;;;;0.00;0.00;;;15.90;90.00;;;;;;4174491;28;20060;-58
2022/11/29 02:34:03;;;;;;;0.00;0.00;;;15.90;89.90;;;;;;4170519;28;20055;-58
2022/11/29 02:37:07;;;;;;;0.00;0.00;;;16.00;89.70;;;;;;4156025;28;20056;-58
2022/11/29 02:40:14;;;;;;;8.48;1.00;;;16.00;89.60;;;;;;4172036;28;20057;-58
2022/11/29 02:43:16;;;;;;;0.00;0.00;;;16.00;89.60;;;;;;4190626;28;20052;-58
2022/11/29 02:46:11;;;;;;;0.00;0.00;;;16.00;89.60;;;;;;4183016;28;20085;-57
2022/11/29 02:49:02;;;;;;;0.20;0.20;;;16.00;89.60;;;;;;4204138;27;20472;-58
2022/11/29 02:51:52;;;;;;;0.10;0.10;;;16.00;89.40;;;;;;4191443;28;20052;-58
2022/11/29 02:54:39;;;;;;;0.30;0.30;;;16.00;89.30;;;;;;4191708;28;20098;-59
2022/11/29 02:57:25;;;;;;;0.10;0.10;;;16.10;89.20;;;;;;4196133;28;20451;-59
2022/11/29 03:00:10;;;;;;;0.00;0.00;;;16.10;89.10;;;;;;4190808;28;20051;-59
2022/11/29 03:02:58;;;;;;;0.52;0.52;;;16.10;89.20;;;;;;4172392;28;20073;-59
2022/11/29 03:05:46;;;;;;;0.03;0.03;;;16.10;89.10;;;;;;4191362;28;20059;-59
2022/11/29 03:08:36;;;;;;;0.00;0.00;;;16.10;89.00;;;;;;4191402;28;20078;-59
2022/11/29 03:11:28;;;;;;;0.30;0.30;;;16.20;88.80;;;;;;4191405;28;20078;-59
2022/11/29 03:14:19;;;;;;;0.00;0.00;;;16.20;88.70;;;;;;4168127;28;20064;-58
2022/11/29 03:17:04;;;;;;;;;;;16.20;88.60;;;;;;4178563;28;20453;-59
2022/11/29 03:20:04;;;;;;;0.00;0.00;;;16.20;88.60;;;;;;4196367;28;20449;-59
2022/11/29 03:22:55;;;;;;;0.10;0.10;;;16.10;88.50;;;;;;4190562;28;20458;-59
2022/11/29 03:25:42;;;;;;;0.00;0.00;;;16.10;88.70;;;;;;4194837;28;20431;-59
2022/11/29 03:28:28;;;;;;;0.15;0.15;;;16.10;88.80;;;;;;4207636;28;20533;-59
2022/11/29 03:31:16;;;;;;;1.13;1.02;;;16.10;89.00;;;;;;4208502;28;20055;-59
2022/11/29 03:34:06;;;;;;;0.10;0.10;;;16.10;88.90;;;;;;4201358;28;20052;-59
2022/11/29 03:36:54;;;;;;;0.65;0.65;;;16.10;88.80;;;;;;4194023;28;20051;-59
2022/11/29 03:39:45;;;;;;;0.08;0.08;;;16.10;88.70;;;;;;4199678;28;20051;-58
2022/11/29 03:42:32;;;;;;;0.10;0.10;;;16.10;88.60;;;;;;4210818;28;20387;-58
2022/11/29 03:45:22;;;;;;;0.00;0.00;;;16.10;88.60;;;;;;4210187;28;20055;-59
2022/11/29 03:48:10;;;;;;;0.00;0.00;;;16.10;88.60;;;;;;4210766;28;20852;-59
2022/11/29 03:50:56;;;;;;;0.00;0.00;;;16.10;88.60;;;;;;4208707;28;20086;-59
2022/11/29 03:53:44;;;;;;;0.10;0.10;;;16.10;88.70;;;;;;4209706;28;20186;-58
2022/11/29 03:56:31;;;;;;;0.43;0.43;;;16.10;88.80;;;;;;4210262;28;20059;-58
2022/11/29 03:59:26;;;;;;;2.17;1.00;;;16.00;88.90;;;;;;4210292;28;20130;-59
2022/11/29 04:02:56;;;;;;;0.00;0.00;;;16.00;89.10;;;;;;4208607;28;20051;-58
2022/11/29 04:06:13;;;;;;;1.27;1.17;;;16.00;89.10;;;;;;4198231;28;20579;-59
2022/11/29 04:09:22;;;;;;;0.17;0.17;;;16.10;89.00;;;;;;4210243;28;20501;-58
2022/11/29 04:12:31;;;;;;;0.00;0.00;;;16.10;88.80;;;;;;4210264;28;20076;-59
2022/11/29 04:15:41;;;;;;;0.30;0.30;;;16.10;88.80;;;;;;4210205;28;20047;-59
2022/11/29 04:18:51;;;;;;;4.70;2.00;;;16.10;88.80;;;;;;4209091;28;20188;-59
2022/11/29 04:22:02;;;;;;;0.45;0.45;;;16.10;88.80;;;;;;4208734;28;20736;-59
2022/11/29 04:25:28;;;;;;;0.08;0.08;;;16.10;88.70;;;;;;4210384;28;20732;-58
2022/11/29 04:28:35;;;;;;;0.22;0.22;;;16.10;88.70;;;;;;4196197;28;20043;-59
2022/11/29 04:31:34;;;;;;;0.00;0.00;;;16.10;88.70;;;;;;4209221;28;20055;-59
2022/11/29 04:34:29;;;;;;;0.28;0.28;;;16.10;88.70;;;;;;4193174;28;20117;-59
2022/11/29 04:37:26;;;;;;;0.22;0.22;;;16.10;88.60;;;;;;4191833;28;20154;-57
2022/11/29 04:40:26;;;;;;;0.10;0.10;;;16.10;88.70;;;;;;4184179;28;20055;-58
2022/11/29 04:43:28;;;;;;;0.00;0.00;;;16.10;88.80;;;;;;4175494;28;20396;-58
2022/11/29 04:46:35;;;;;;;0.00;0.00;;;16.20;88.60;;;;;;4202930;28;20050;-58
2022/11/29 04:49:36;;;;;;;0.20;0.20;;;16.30;88.20;;;;;;4207417;28;20182;-56
2022/11/29 04:52:50;;;;;;;0.00;0.00;;;16.40;88.00;;;;;;4209020;28;20145;-58
2022/11/29 04:55:42;;;;;;;0.10;0.10;;;16.40;87.80;;;;;;4208922;28;20177;-57
2022/11/29 04:58:31;;;;;;;0.00;0.00;;;16.30;87.60;;;;;;4209051;28;20109;-58
2022/11/29 05:01:22;;;;;;;0.30;0.30;;;16.40;87.70;;;;;;4174707;28;20091;-58
2022/11/29 05:04:13;;;;;;;0.00;0.00;;;16.30;87.70;;;;;;4175923;28;20059;-57
2022/11/29 05:07:02;;;;;;;0.10;0.10;;;16.30;87.80;;;;;;4175628;28;20062;-57
2022/11/29 05:09:57;;;;;;;0.00;0.00;;;16.30;87.80;;;;;;4178949;28;20094;-60
2022/11/29 05:12:44;;;;;;;0.15;0.15;;;16.30;87.80;;;;;;4208464;28;20700;-58
2022/11/29 05:15:44;;;;;;;0.00;0.00;;;16.30;87.90;;;;;;4175477;28;20059;-60
2022/11/29 05:18:36;;;;;;;4.18;1.13;;;16.30;87.90;;;;;;4174795;28;20052;-58
2022/11/29 05:21:29;;;;;;;0.00;0.00;;;16.30;87.80;;;;;;4175421;28;20052;-60
2022/11/29 05:24:23;;;;;;;0.15;0.15;;;16.30;87.70;;;;;;4175261;28;20052;-59
2022/11/29 05:27:12;;;;;;;0.00;0.00;;;16.40;87.70;;;;;;4198845;28;20059;-58
2022/11/29 05:30:00;;;;;;;0.75;0.75;;;16.40;87.70;;;;;;4209141;28;20514;-59
2022/11/29 05:32:54;;;;;;;0.00;0.00;;;16.30;87.70;;;;;;4202712;28;20059;-59
2022/11/29 05:35:52;;;;;;;0.35;0.35;;;16.30;87.80;;;;;;4191981;28;20150;-59
2022/11/29 05:39:10;;;;;;;0.10;0.10;;;16.30;87.90;;;;;;4192082;28;20051;-60
2022/11/29 05:42:08;;;;;;;0.10;0.10;;;16.40;87.80;;;;;;4190612;28;20068;-59
2022/11/29 05:44:54;;;;;;;0.10;0.10;;;16.30;87.70;;;;;;4199396;28;20141;-59
2022/11/29 05:47:41;;;;;;;0.00;0.00;;;16.40;87.80;;;;;;4175588;28;20063;-59
2022/11/29 05:50:27;;;;;;;0.90;0.90;;;16.40;87.70;;;;;;4175140;28;20127;-59
2022/11/29 05:53:24;;;;;;;0.10;0.10;;;16.40;87.60;;;;;;4174790;28;20223;-59
2022/11/29 05:56:15;;;;;;;0.32;0.32;;;16.40;87.40;;;;;;4174227;28;20051;-59
2022/11/29 05:58:59;;;;;;;0.00;0.00;;;16.40;87.40;;;;;;4180563;28;20197;-60
2022/11/29 06:01:49;;;;;;;0.10;0.10;;;16.50;87.50;;;;;;4191615;28;20047;-59
2022/11/29 06:04:39;;;;;;;0.00;0.00;;;16.50;87.20;;;;;;4191945;28;20055;-59
2022/11/29 06:07:25;;;;;;;0.22;0.22;;;16.50;87.10;;;;;;4191545;28;20055;-59
2022/11/29 06:10:12;;;;;;;0.20;0.20;;;16.50;87.00;;;;;;4192775;28;20379;-59
2022/11/29 06:13:07;;;;;;;0.55;0.30;;;16.50;87.10;;;;;;4191654;28;20067;-59
2022/11/29 06:16:13;;;;;;;0.00;0.00;;;16.50;88.00;;;;;;4199489;27;20121;-58
2022/11/29 06:19:33;;;;;;;0.00;0.00;;;16.40;87.20;;;;;;4191188;28;20067;-59
2022/11/29 06:22:34;;;;;;;0.10;0.10;;;16.40;87.50;;;;;;4198855;28;20047;-60
2022/11/29 06:25:23;;;;;;;;;;;16.30;87.60;;;;;;4174970;28;20059;-59
2022/11/29 06:28:26;;;;;;;0.00;0.00;;;16.30;87.80;;;;;;4175320;28;19928;-59
2022/11/29 06:31:16;;;;;;;0.00;0.00;;;16.30;88.10;;;;;;4180726;28;20408;-59
2022/11/29 06:34:06;;;;;;;0.20;0.20;;;16.30;88.30;;;;;;4191297;28;20098;-59
2022/11/29 06:36:51;;;;;;;0.00;0.00;;;16.30;88.10;;;;;;4175045;28;20566;-59
2022/11/29 06:39:32;;;;;;;0.10;0.10;;;16.40;88.00;;;;;;4175517;28;20075;-60
2022/11/29 06:42:13;;;;;;;0.10;0.10;;;16.40;87.70;;;;;;4176472;28;20064;-59
2022/11/29 06:44:56;;;;;;;0.40;0.40;;;16.40;87.50;;;;;;4191500;28;20055;-59
2022/11/29 06:47:41;;;;;;;0.00;0.00;;;16.40;87.40;;;;;;4192853;27;20407;-59
2022/11/29 06:50:36;;;;;;;0.00;0.00;;;16.40;87.50;;;;;;4158426;28;20045;-59
2022/11/29 06:53:23;;;;;;;0.35;0.35;;;16.40;87.60;;;;;;4173393;28;20518;-59
2022/11/29 06:56:14;;;;;;;0.50;0.50;;;16.40;87.70;;;;;;4174742;28;20052;-60
2022/11/29 06:59:02;;;;;;;0.63;0.63;;;16.40;87.60;;;;;;4175005;28;20060;-59
2022/11/29 07:01:51;;;;;;;0.00;0.00;;;16.50;87.50;;;;;;4175136;28;20052;-60
2022/11/29 07:04:49;;;;;;;0.08;0.08;;;16.50;87.50;;;;;;4192377;27;20399;-60
2022/11/29 07:07:31;;;;;;;0.00;0.00;;;16.50;88.00;;;;;;4194478;28;20115;-59
2022/11/29 07:10:16;;;;;;;0.80;0.80;;;16.50;88.10;;;;;;4193529;28;20067;-59
2022/11/29 07:12:57;;;;;;;0.30;0.30;;;16.60;88.00;;;;;;4186441;28;20050;-58
2022/11/29 07:15:41;;;;;;;0.10;0.10;;;16.60;87.70;;;;;;4193159;28;20052;-57
2022/11/29 07:18:31;;;;;;;0.00;0.00;;;16.60;87.40;;;;;;4177932;28;20102;-58
2022/11/29 07:21:19;;;;;;;5.97;1.90;;;16.60;87.10;;;;;;4177928;28;20187;-57
2022/11/29 07:24:15;;;;;;;1.08;1.08;;;16.60;87.50;;;;;;4177971;28;20191;-59
2022/11/29 07:27:02;;;;;;;0.43;0.43;;;16.60;87.70;;;;;;4177637;28;20151;-58
2022/11/29 07:29:56;;;;;;;0.43;0.43;;;16.50;87.70;;;;;;4180090;28;20519;-59
2022/11/29 07:32:45;;;;;;;0.75;0.75;;;16.50;87.80;;;;;;4182372;28;20082;-58
2022/11/29 07:35:38;;;;;;;0.17;0.17;;;16.40;88.00;;;;;;4193959;28;20075;-58
2022/11/29 07:38:25;;;;;;;0.00;0.00;;;16.40;88.10;;;;;;4200054;28;20064;-58
2022/11/29 07:41:16;;;;;;;3.05;2.78;;;16.40;88.30;;;;;;4193647;28;20059;-58
2022/11/29 07:44:05;;;;;;;0.30;0.30;;;16.30;88.40;;;;;;4192698;28;20272;-59
2022/11/29 07:46:46;;;;;;;3.50;1.35;;;16.30;88.70;;;;;;4188822;28;20482;-58
2022/11/29 07:49:27;;;;;;;0.00;0.00;;;16.20;88.80;;;;;;4193730;28;20056;-57
2022/11/29 07:52:11;;;;;;;0.00;0.00;;;16.10;89.30;;;;;;4193646;28;20055;-58
2022/11/29 07:54:53;;;;;;;0.15;0.15;;;16.10;89.70;;;;;;4177455;28;20138;-58
2022/11/29 07:57:35;;;;;;;2.10;1.95;;;16.10;89.80;;;;;;4177583;28;20055;-56
2022/11/29 08:00:18;;;;;;;0.13;0.13;;;16.10;89.50;;;;;;4177262;28;20071;-59
2022/11/29 08:02:58;;;;;;;0.85;0.85;;;16.20;89.20;;;;;;4184182;27;20047;-58
2022/11/29 08:05:39;;;;;;;2.25;1.00;;;16.20;89.00;;;;;;4210140;27;20122;-58
2022/11/29 08:08:22;;;;;;;;;;;16.30;88.90;;;;;;4188800;28;20048;-57
2022/11/29 08:11:07;;;;;;;;;;;16.30;88.60;;;;;;4193783;28;19979;-58
2022/11/29 08:13:48;;;;;;;0.47;0.47;;;16.40;88.40;;;;;;4193604;28;19928;-58
2022/11/29 08:16:30;;;;;;;3.00;0.98;;;16.30;88.20;;;;;;4193547;28;20097;-57
2022/11/29 08:19:11;;;;;;;0.10;0.10;;;16.40;88.30;;;;;;4193594;28;20557;-58
2022/11/29 08:21:51;;;;;;;0.82;0.80;;;16.40;88.10;;;;;;4193713;28;20051;-59
2022/11/29 08:24:34;;;;;;;0.00;0.00;;;16.40;87.80;;;;;;4181362;28;20059;-57
2022/11/29 08:27:15;;;;;;;0.10;0.10;;;16.40;87.70;;;;;;4179425;28;20048;-58
2022/11/29 08:29:56;;;;;;;1.38;1.00;;;16.40;87.60;;;;;;4193088;28;20059;-56
2022/11/29 08:32:37;;;;;;;0.20;0.20;;;16.50;87.60;;;;;;4176823;28;20503;-55
2022/11/29 08:35:19;;;;;;;0.03;0.03;;;16.40;87.50;;;;;;4176995;28;20209;-57
2022/11/29 08:38:00;;;;;;;0.88;0.85;;;16.40;87.50;;;;;;4177030;28;20491;-58
2022/11/29 08:40:42;;;;;;;0.20;0.20;;;16.50;88.40;;;;;;4164647;28;20052;-57
2022/11/29 08:43:23;;;;;;;0.00;0.00;;;16.50;87.40;;;;;;4179885;28;20459;-58
2022/11/29 08:46:04;;;;;;;0.00;0.00;;;16.50;87.20;;;;;;4208996;28;20121;-58
2022/11/29 08:48:46;;;;;;;0.68;0.68;;;16.50;87.00;;;;;;4202055;28;20182;-59
2022/11/29 08:51:26;;;;;;;4.20;1.20;;;16.50;87.00;;;;;;4191883;28;20129;-59
2022/11/29 08:54:07;;;;;;;0.20;0.20;;;16.50;87.10;;;;;;4193173;28;20052;-59
2022/11/29 08:56:50;;;;;;;0.30;0.30;;;16.50;87.20;;;;;;4176520;28;20139;-57
2022/11/29 08:59:50;;;;;;;0.60;0.60;;;16.50;87.10;;;;;;4176288;28;20163;-57
2022/11/29 09:02:32;;;;;;;0.08;0.08;;;16.50;87.00;;;;;;4180605;28;20594;-57
2022/11/29 09:05:13;;;;;;;0.03;0.03;;;16.50;86.90;;;;;;4192579;28;20052;-58
2022/11/29 09:07:54;;;;;;;0.00;0.00;;;16.50;86.90;;;;;;4192777;28;20118;-58
2022/11/29 09:10:37;;;;;;;0.85;0.85;;;16.50;86.90;;;;;;4192706;28;20059;-59
2022/11/29 09:13:19;;;;;;;0.00;0.00;;;16.40;87.00;;;;;;4193068;28;20051;-58
2022/11/29 09:16:05;;;;;;;1.17;0.28;;;16.40;87.20;;;;;;4209162;28;20166;-59
2022/11/29 09:18:47;;;;;;;3.78;0.75;;;16.40;87.40;;;;;;4187839;28;20056;-57
2022/11/29 09:21:35;;;;;;;0.00;0.00;;;16.30;87.50;;;;;;4158130;28;20099;-58
2022/11/29 09:24:17;;;;;;;0.00;0.00;;;16.30;87.70;;;;;;4178779;28;20406;-59
2022/11/29 09:26:58;;;;;;;0.10;0.10;;;16.20;88.70;;;;;;4192355;28;20090;-57
2022/11/29 09:29:40;;;;;;;0.00;0.00;;;16.20;88.20;;;;;;4190868;28;20055;-58
2022/11/29 09:32:21;;;;;;;0.00;0.00;;;16.20;88.40;;;;;;4192122;28;20052;-57
2022/11/29 09:35:02;;;;;;;0.00;0.00;;;16.20;88.20;;;;;;4192936;28;20402;-58
2022/11/29 09:37:43;;;;;;;0.00;0.00;;;16.30;88.00;;;;;;4195897;28;20197;-58
2022/11/29 09:40:31;;;;;;;0.00;0.00;;;16.30;87.70;;;;;;4175771;28;20048;-58
2022/11/29 09:43:24;;;;;;;0.00;0.00;;;16.40;87.50;;;;;;4174558;28;20051;-55
2022/11/29 09:46:16;;;;;;;0.28;0.28;;;16.30;87.30;;;;;;4178880;28;20047;-57
2022/11/29 09:49:19;;;;;;;0.00;0.00;;;16.40;87.30;;;;;;4209103;28;20065;-56
2022/11/29 09:52:04;;;;;;;0.45;0.45;;;16.40;87.40;;;;;;4208428;28;20113;-57
2022/11/29 09:54:53;;;;;;;0.00;0.00;;;16.30;87.50;;;;;;4198003;28;20047;-58
2022/11/29 09:57:34;;;;;;;0.35;0.25;;;16.30;87.70;;;;;;4195188;28;20121;-56
2022/11/29 10:00:17;;;;;;;0.00;0.00;;;16.30;87.90;;;;;;4191997;28;20376;-57
2022/11/29 10:03:04;;;;;;;0.00;0.00;;;16.30;87.90;;;;;;4198652;28;20067;-58
2022/11/29 10:05:49;;;;;;;0.00;0.00;;;16.40;87.60;;;;;;4175632;28;20048;-59
2022/11/29 10:08:36;;;;;;;0.52;0.52;;;16.40;87.30;;;;;;4183570;28;20051;-58
2022/11/29 10:11:21;;;;;;;0.22;0.22;;;16.40;87.20;;;;;;4202665;28;20394;-60
2022/11/29 10:14:11;;;;;;;0.00;0.00;;;16.50;87.10;;;;;;4208840;28;20051;-59
2022/11/29 10:16:57;;;;;;;0.00;0.00;;;16.50;87.20;;;;;;4208497;28;20054;-59
2022/11/29 10:19:44;;;;;;;0.00;0.00;;;16.40;87.20;;;;;;4201095;28;20059;-59
2022/11/29 10:22:32;;;;;;;0.20;0.20;;;16.40;87.40;;;;;;4197511;28;20455;-58
2022/11/29 10:25:21;;;;;;;1.45;1.02;;;16.40;87.60;;;;;;4191542;28;20063;-58
2022/11/29 10:28:04;;;;;;;0.00;0.00;;;16.30;87.70;;;;;;4191513;28;20043;-58
2022/11/29 10:30:45;;;;;;;0.05;0.05;;;16.30;87.90;;;;;;4201178;28;20640;-58
2022/11/29 10:33:30;;;;;;;0.20;0.20;;;16.20;88.00;;;;;;4196318;28;20051;-57
2022/11/29 10:36:18;;;;;;;0.00;0.00;;;16.20;88.20;;;;;;4191877;28;20135;-59
2022/11/29 10:39:03;;;;;;;0.00;0.00;;;16.10;88.40;;;;;;4191203;28;20186;-58
2022/11/29 10:41:53;;;;;;;0.20;0.20;;;16.10;88.60;;;;;;4195495;28;20063;-58
2022/11/29 10:44:34;;;;;;;0.00;0.00;;;16.10;88.80;;;;;;4210700;28;20051;-58
2022/11/29 10:47:15;;;;;;;0.88;0.80;;;16.00;88.90;;;;;;4211635;28;20067;-58
2022/11/29 10:49:56;;;;;;;1.00;1.00;;;16.00;89.10;;;;;;4188939;28;20055;-62
2022/11/29 10:52:38;;;;;;;0.00;0.00;;;16.00;89.40;;;;;;4210788;28;20145;-59
2022/11/29 10:55:22;;;;;;;0.10;0.10;;;15.90;89.50;;;;;;4194654;28;20121;-59
2022/11/29 10:58:18;;;;;;;0.00;0.00;;;15.90;89.60;;;;;;4194919;28;20055;-57
2022/11/29 11:01:07;;;;;;;0.45;0.45;;;15.90;89.90;;;;;;4204910;28;20055;-59
2022/11/29 11:03:52;;;;;;;0.00;0.00;;;15.80;89.80;;;;;;4211299;28;20055;-59
2022/11/29 11:06:44;;;;;;;0.00;0.00;;;15.80;89.90;;;;;;4198258;28;20043;-58
2022/11/29 11:09:32;;;;;;;0.68;0.68;;;15.80;90.00;;;;;;4210668;28;20398;-57
2022/11/29 11:12:19;;;;;;;0.30;0.30;;;15.70;90.00;;;;;;4207180;28;20051;-58
2022/11/29 11:15:25;;;;;;;0.03;0.03;;;15.60;90.40;;;;;;4195279;28;20422;-57
2022/11/29 11:18:08;;;;;;;0.00;0.00;;;15.60;90.10;;;;;;4177751;28;20052;-57
2022/11/29 11:20:54;;;;;;;0.05;0.05;;;15.60;90.10;;;;;;4184355;28;20067;-59
2022/11/29 11:23:37;;;;;;;0.00;0.00;;;15.60;90.20;;;;;;4194202;28;20113;-58
2022/11/29 11:26:24;;;;;;;0.90;0.90;;;15.50;90.20;;;;;;4194004;28;20079;-58
2022/11/29 11:29:05;;;;;;;0.08;0.08;;;15.50;90.00;;;;;;4177114;28;20055;-57
2022/11/29 11:31:53;;;;;;;0.00;0.00;;;15.50;89.30;;;;;;4177681;28;20055;-57
2022/11/29 11:34:35;;;;;;;0.00;0.00;;;15.40;90.10;;;;;;4177737;28;20075;-55
2022/11/29 11:37:23;;;;;;;0.08;0.08;;;15.40;90.60;;;;;;4191093;28;20043;-58
2022/11/29 11:40:24;;;;;;;0.32;0.32;;;15.40;90.70;;;;;;4193938;28;20136;-58
2022/11/29 11:43:19;;;;;;;0.00;0.00;;;15.40;90.60;;;;;;4193837;28;20159;-58
2022/11/29 11:45:59;;;;;;;0.52;0.47;;;15.40;90.80;;;;;;4193767;28;20063;-58
2022/11/29 11:48:41;;;;;;;0.63;0.63;;;15.40;90.80;;;;;;4187854;28;20158;-58
2022/11/29 11:51:25;;;;;;;6.32;3.35;;;15.40;90.90;;;;;;4193449;28;20290;-55
2022/11/29 11:54:13;;;;;;;1.25;1.20;;;15.40;90.80;;;;;;4193954;28;20118;-58
2022/11/29 11:56:54;;;;;;;0.35;0.35;;;15.30;90.70;;;;;;4194016;28;20408;-58
2022/11/29 11:59:37;;;;;;;8.73;2.35;;;15.30;90.90;;;;;;4193902;28;20055;-57
2022/11/29 12:02:29;;;;;;;0.08;0.08;;;15.30;90.70;;;;;;4193158;28;20135;-58
2022/11/29 12:05:15;;;;;;;0.03;0.03;;;15.30;90.70;;;;;;4197274;28;20056;-57
2022/11/29 12:08:02;;;;;;;0.30;0.30;;;15.20;90.80;;;;;;4193664;28;20109;-58
2022/11/29 12:10:54;;;;;;;0.47;0.47;;;15.20;90.80;;;;;;4186668;27;20077;-57
2022/11/29 12:13:40;;;;;;;0.00;0.00;;;15.20;91.00;;;;;;4210500;27;20063;-55
2022/11/29 12:16:28;;;;;;;0.45;0.45;;;15.20;91.00;;;;;;4198787;28;20055;-58
2022/11/29 12:19:17;;;;;;;3.50;1.15;;;15.20;90.80;;;;;;4210337;28;20086;-58
2022/11/29 12:22:05;;;;;;;0.32;0.32;;;15.20;90.50;;;;;;4198250;28;20195;-57
2022/11/29 12:24:55;;;;;;;4.18;2.13;;;15.10;90.80;;;;;;4193643;28;20384;-57
2022/11/29 12:27:36;;;;;;;0.10;0.10;;;15.10;90.60;;;;;;4193478;28;20478;-55
2022/11/29 12:30:17;;;;;;;0.68;0.52;;;15.10;90.20;;;;;;4193561;28;20047;-58
2022/11/29 12:33:18;;;;;;;0.20;0.20;;;15.10;90.50;;;;;;4184458;28;20051;-55
2022/11/29 12:36:13;;;;;;;0.00;0.00;;;15.10;90.70;;;;;;4194120;28;20487;-57
2022/11/29 12:39:28;;;;;;;0.20;0.20;;;15.00;90.50;;;;;;4182273;28;20044;-57
2022/11/29 12:42:20;;;;;;;0.30;0.30;;;15.00;91.00;;;;;;4180015;28;20059;-58
2022/11/29 12:45:15;;;;;;;0.03;0.03;;;15.00;90.60;;;;;;4172969;28;21131;-56
2022/11/29 12:48:09;;;;;;;1.55;1.20;;;15.00;90.80;;;;;;4176497;28;20052;-55
2022/11/29 12:51:02;;;;;;;4.30;1.33;;;15.00;90.90;;;;;;4190095;28;20500;-57
2022/11/29 12:54:11;;;;;;;0.85;0.85;;;15.00;91.20;;;;;;4174443;28;20055;-58
2022/11/29 12:56:58;;;;;;;0.60;0.60;;;15.00;91.20;;;;;;4175830;28;20123;-58
2022/11/29 12:59:59;;;;;;;0.10;0.10;;;14.90;91.10;;;;;;4174278;28;20059;-58
2022/11/29 13:02:58;;;;;;;0.13;0.13;;;14.90;91.10;;;;;;4160143;28;20059;-58
2022/11/29 13:05:50;;;;;;;0.75;0.75;;;14.90;90.80;;;;;;4184420;28;20060;-55
2022/11/29 13:08:49;;;;;;;;;;;14.90;90.80;;;;;;4189888;28;20423;-55
2022/11/29 13:11:34;;;;;;;0.40;0.40;;;14.90;90.90;;;;;;4173169;28;20505;-53
2022/11/29 13:14:22;;;;;;;0.20;0.20;;;14.90;91.10;;;;;;4172059;28;20048;-49
2022/11/29 13:17:34;;;;;;;2.15;2.05;;;14.90;91.40;;;;;;4178409;28;20118;-54
2022/11/29 13:20:24;;;;;;;;;;;14.90;91.60;;;;;;4174682;28;20110;-53
2022/11/29 13:23:14;;;;;;;0.93;0.93;;;14.90;92.00;;;;;;4182367;28;19978;-50
2022/11/29 13:26:00;;;;;;;0.00;0.00;;;14.90;91.70;;;;;;4188601;28;20071;-51
2022/11/29 13:28:42;;;;;;;0.68;0.68;;;14.90;91.70;;;;;;4167514;28;20202;-50
2022/11/29 13:31:25;;;;;;;0.38;0.38;;;14.90;91.80;;;;;;4188929;28;20157;-53
2022/11/29 13:34:09;;;;;;;1.10;1.10;;;14.90;91.90;;;;;;4189822;28;20193;-54
2022/11/29 13:37:04;;;;;;;0.98;0.98;;;14.90;92.00;;;;;;4176015;28;20059;-54
2022/11/29 13:40:01;;;;;;;0.30;0.30;;;15.00;91.90;;;;;;4182287;28;20399;-53
2022/11/29 13:42:49;;;;;;;1.48;0.85;;;15.10;91.70;;;;;;4175871;28;20060;-51
2022/11/29 13:45:38;;;;;;;0.25;0.25;;;15.20;91.60;;;;;;4189272;28;20399;-50
2022/11/29 13:48:33;;;;;;;1.33;1.27;;;15.20;91.50;;;;;;4174032;28;21763;-54
2022/11/29 13:51:30;;;;;;;1.73;1.55;;;15.20;91.40;;;;;;4172228;28;20128;-54
2022/11/29 13:54:27;;;;;;;1.10;1.10;;;15.20;91.40;;;;;;4170783;28;20064;-56
2022/11/29 13:57:10;;;;;;;2.72;1.38;;;15.30;91.30;;;;;;4183037;27;20133;-55
2022/11/29 13:59:52;;;;;;;0.10;0.10;;;15.30;91.20;;;;;;4172637;28;20056;-53
2022/11/29 14:02:34;;;;;;;0.35;0.35;;;15.40;91.10;;;;;;4184371;28;20103;-53
2022/11/29 14:05:25;;;;;;;0.00;0.00;;;15.50;90.90;;;;;;4176199;28;20083;-55
2022/11/29 14:08:33;;;;;;;3.63;2.45;;;15.50;90.70;;;;;;4175935;28;20403;-54
2022/11/29 14:11:43;;;;;;;0.10;0.10;;;15.50;90.60;;;;;;4160928;28;20182;-54
2022/11/29 14:14:29;;;;;;;1.40;1.30;;;15.50;90.60;;;;;;4188194;28;20563;-55
2022/11/29 14:17:46;;;;;;;0.43;0.43;;;15.50;90.80;;;;;;4183859;28;20051;-55
2022/11/29 14:20:56;;;;;;;0.08;0.08;;;15.50;90.50;;;;;;4172710;28;20933;-55
2022/11/29 14:23:42;;;;;;;0.63;0.63;;;15.50;90.40;;;;;;4172149;28;20067;-55
2022/11/29 14:26:28;;;;;;;4.57;2.63;;;15.40;90.50;;;;;;4160959;28;20546;-56
2022/11/29 14:29:42;;;;;;;0.40;0.40;;;15.40;90.50;;;;;;4174065;28;20052;-57
2022/11/29 14:32:25;;;;;;;1.15;1.15;;;15.40;90.50;;;;;;4173856;28;20059;-56
2022/11/29 14:35:16;;;;;;;0.10;0.10;;;15.30;90.30;;;;;;4172952;28;20178;-56
2022/11/29 14:38:08;;;;;;;0.30;0.30;;;15.30;90.50;;;;;;4173408;28;20097;-57
2022/11/29 14:40:56;;;;;;;0.00;0.00;;;15.20;90.60;;;;;;4171206;28;20056;-54
2022/11/29 14:43:40;;;;;;;3.85;1.00;;;15.20;90.60;;;;;;4176822;28;20055;-55